All
West Wyalong Airport (West Wyalong, New South Wales) WWY Weather
|
West Wyalong, New South Wales (WWY / YWWL)
Clear skies
Windy |
|
77 °F |
There is no TAF data available at WWY or any nearby airports.
Recent WWY METAR history
| Date | Time (AEST) | Flight Rules | Wind Dir. | Speed | Type | Height AGL (ft) | Visibility | Temp (°C) | Temp (°F) | Dew Point (°C) | Dew Point (°F) | Rel. Humid. | Pressure | Density Altitude | Remarks |
|---|---|---|---|---|---|---|---|---|---|---|---|---|---|---|---|
| 03-May | 01:00PM | n/a | 360° | 14 kt | Missing | 25° | 77° | 13° | 55° | 47% | 1016 mb | 1,977 ft | |||
| 03-May | 12:00PM | n/a | 10° | 14 kt | Missing | 24° | 75° | 13° | 55° | 50% | 1017 mb | 1,827 ft | |||
| 03-May | 11:00AM | n/a | 10° | 16 kt | Missing | 23° | 73° | 12° | 53° | 50% | 1018 mb | 1,677 ft | |||
| 03-May | 10:00AM | n/a | 10° | 14 kt | Missing | 21° | 69° | 12° | 53° | 56% | 1019 mb | 1,408 ft | |||
| 03-May | 09:00AM | n/a | 10° | 13 kt | Missing | 20° | 68° | 12° | 53° | 60% | 1019 mb | 1,288 ft | |||
| 03-May | 08:00AM | n/a | 10° | 10 kt | Missing | 19° | 66° | 12° | 53° | 64% | 1019 mb | 1,168 ft | |||
| 03-May | 07:00AM | n/a | 20° | 10 kt | Missing | 19° | 66° | 11° | 51° | 60% | 1018 mb | 1,197 ft | |||
| 03-May | 06:00AM | n/a | 30° | 10 kt | Missing | 17° | 62° | 12° | 53° | 72% | 1017 mb | 987 ft | |||
| 03-May | 05:00AM | n/a | 30° | 9 kt | Missing | 18° | 64° | 12° | 53° | 68% | 1017 mb | 1,107 ft | |||
| 03-May | 04:00AM | n/a | 40° | 8 kt | Missing | 17° | 62° | 12° | 53° | 72% | 1017 mb | 987 ft | |||
| 03-May | 03:00AM | n/a | 50° | 4 kt | Missing | 15° | 59° | 13° | 55° | 88% | 1017 mb | 747 ft | |||
| 03-May | 02:00AM | n/a | 290° | 7 kt | Missing | 17° | 62° | 15° | 59° | 88% | 1018 mb | 957 ft | |||
| 03-May | 01:00AM | n/a | 110° | 3 kt | Missing | 17° | 62° | 15° | 59° | 88% | 1018 mb | 957 ft | |||
| 03-May | 12:00AM | n/a | 30° | 1 kt | Missing | 17° | 62° | 15° | 59° | 88% | 1019 mb | 928 ft | |||
| 02-May | 11:00PM | n/a | 20° | 2 kt | Missing | 17° | 62° | 15° | 59° | 88% | 1019 mb | 928 ft | |||
| 02-May | 10:00PM | n/a | 330° | 4 kt | Missing | 18° | 64° | 15° | 59° | 83% | 1019 mb | 1,048 ft | |||
| 02-May | 09:00PM | n/a | 50° | 4 kt | Missing | 17° | 62° | 15° | 59° | 88% | 1019 mb | 928 ft | |||
| 02-May | 08:00PM | n/a | 20° | 10 kt | Missing | 18° | 64° | 15° | 59° | 83% | 1019 mb | 1,048 ft | |||
| 02-May | 07:00PM | n/a | 50° | 6 kt | Missing | 22° | 71° | 12° | 53° | 53% | 1019 mb | 1,528 ft | |||
| 02-May | 06:00PM | n/a | 50° | 7 kt | Missing | 22° | 71° | 12° | 53° | 53% | 1018 mb | 1,557 ft | |||
| 02-May | 05:00PM | n/a | 40° | 10 kt | Missing | 23° | 73° | 11° | 51° | 47% | 1018 mb | 1,677 ft | |||
| 02-May | 04:00PM | n/a | 30° | 10 kt | Missing | 24° | 75° | 11° | 51° | 44% | 1018 mb | 1,797 ft | |||
| 02-May | 03:00PM | n/a | 20° | 12 kt | Missing | 25° | 77° | 10° | 50° | 39% | 1019 mb | 1,888 ft | |||
| 02-May | 02:00PM | n/a | 30° | 11 kt | Missing | 25° | 77° | 9° | 48° | 36% | 1019 mb | 1,888 ft |
Login
| Your browser is unsupported. upgrade your browser |
